createdAt,value
2023-03-10T00:02:11.446Z,96353.25
2023-03-10T00:05:20.042Z,96354.09
2023-03-10T00:08:27.181Z,96348.19
2023-03-10T00:11:37.111Z,96345.75
2023-03-10T00:14:43.502Z,96331.91
2023-03-10T00:17:55.888Z,96337.63
2023-03-10T00:21:01.982Z,96323.78
2023-03-10T00:24:09.303Z,96323.34
2023-03-10T00:27:17.883Z,96323.97
2023-03-10T00:30:24.989Z,96322.94
2023-03-10T00:33:31.062Z,96305.03
2023-03-10T00:36:38.167Z,96313.59
2023-03-10T00:39:44.138Z,96321.31
2023-03-10T00:43:00.969Z,96321.91
2023-03-10T00:46:08.137Z,96318.69
2023-03-10T00:49:19.936Z,96323.13
2023-03-10T00:52:25.856Z,96321.34
2023-03-10T00:55:32.731Z,96323.78
2023-03-10T00:58:42.059Z,96303.63
2023-03-10T01:01:48.896Z,96297.31
2023-03-10T01:04:55.291Z,96294.25
2023-03-10T01:08:01.981Z,96300.78
2023-03-10T01:11:08.419Z,96295.06
2023-03-10T01:14:20.654Z,96291.00
2023-03-10T01:17:27.785Z,96282.03
2023-03-10T01:20:38.212Z,96294.66
2023-03-10T01:23:44.169Z,96286.69
2023-03-10T01:26:51.069Z,96269.81
2023-03-10T01:29:59.777Z,96280.97
2023-03-10T01:33:06.747Z,96275.66
2023-03-10T01:36:16.150Z,96271.00
2023-03-10T01:39:25.524Z,96262.81
2023-03-10T01:42:31.567Z,96263.25
2023-03-10T01:46:31.911Z,96276.06
2023-03-10T01:49:48.479Z,96286.66
2023-03-10T01:52:58.698Z,96284.41
2023-03-10T01:56:09.740Z,96278.50
2023-03-10T01:59:18.722Z,96267.53
2023-03-10T02:02:25.373Z,96275.88
2023-03-10T02:05:35.813Z,96265.50
2023-03-10T02:08:48.654Z,96265.31
2023-03-10T02:11:55.983Z,96255.13
2023-03-10T02:15:02.336Z,96259.44
2023-03-10T02:18:14.876Z,96263.91
2023-03-10T02:21:46.215Z,96255.97
2023-03-10T02:25:02.710Z,96255.75
2023-03-10T02:28:12.097Z,96249.66
2023-03-10T02:31:22.421Z,96233.97
2023-03-10T02:34:31.547Z,96231.72
2023-03-10T02:37:40.185Z,96234.38
2023-03-10T02:40:50.978Z,96228.91
2023-03-10T02:44:11.025Z,96229.31
2023-03-10T02:47:17.375Z,96221.56
2023-03-10T02:50:30.204Z,96225.22
2023-03-10T02:53:36.236Z,96230.31
2023-03-10T02:56:43.916Z,96226.84
2023-03-10T02:59:53.379Z,96226.03
2023-03-10T03:03:01.156Z,96231.72
2023-03-10T03:06:08.600Z,96227.47
2023-03-10T03:09:15.830Z,96216.88
2023-03-10T03:12:23.238Z,96210.16
2023-03-10T03:15:33.837Z,96195.91
2023-03-10T03:18:41.468Z,96198.78
2023-03-10T03:21:51.260Z,96193.47
2023-03-10T03:24:57.342Z,96188.00
2023-03-10T03:28:04.312Z,96188.78
2023-03-10T03:31:18.762Z,96178.84
2023-03-10T03:35:25.279Z,96180.03
2023-03-10T03:38:32.950Z,96182.47
2023-03-10T03:41:42.277Z,96174.72
2023-03-10T03:44:50.124Z,96164.75
2023-03-10T03:48:00.494Z,96159.03
2023-03-10T03:51:09.548Z,96156.34
2023-03-10T03:54:20.329Z,96157.16
2023-03-10T03:57:29.342Z,96140.50
2023-03-10T04:00:40.364Z,96140.50
2023-03-10T04:03:51.507Z,96131.78
2023-03-10T04:06:58.722Z,96114.50
2023-03-10T04:10:05.490Z,96118.53
2023-03-10T04:13:12.516Z,96119.38
2023-03-10T04:16:18.718Z,96107.34
2023-03-10T04:19:30.389Z,96100.63
2023-03-10T04:22:45.133Z,96100.22
2023-03-10T04:25:52.627Z,96106.69
2023-03-10T04:28:59.741Z,96113.41
2023-03-10T04:32:09.508Z,96111.59
2023-03-10T04:35:22.172Z,96114.47
2023-03-10T04:38:29.018Z,96091.28
2023-03-10T04:41:35.201Z,96090.84
2023-03-10T04:44:42.132Z,96080.88
2023-03-10T04:47:48.116Z,96077.38
2023-03-10T04:51:05.544Z,96075.94
2023-03-10T04:54:16.139Z,96070.41
2023-03-10T04:57:24.751Z,96064.72
2023-03-10T05:00:32.448Z,96062.97
2023-03-10T05:03:39.690Z,96065.38
2023-03-10T05:06:54.070Z,96058.41
2023-03-10T05:10:06.253Z,96057.22
2023-03-10T05:13:13.147Z,96052.00
2023-03-10T05:16:24.643Z,96039.75
2023-03-10T05:19:32.592Z,96041.44
2023-03-10T05:22:43.309Z,96035.00
2023-03-10T05:25:52.696Z,96027.31
2023-03-10T05:29:01.575Z,96035.50
2023-03-10T05:32:17.599Z,96033.31
2023-03-10T05:35:27.324Z,96031.06
2023-03-10T05:38:39.518Z,96023.59
2023-03-10T05:41:51.625Z,96012.25
2023-03-10T05:44:58.506Z,96012.44
2023-03-10T05:48:05.782Z,96005.72
2023-03-10T05:51:15.494Z,96003.31
2023-03-10T05:54:25.749Z,95997.63
2023-03-10T05:57:32.189Z,96003.72
2023-03-10T06:00:39.265Z,95988.28
2023-03-10T06:03:52.211Z,95991.34
2023-03-10T06:07:00.815Z,95976.22
2023-03-10T06:10:30.114Z,95979.81
2023-03-10T06:13:36.969Z,95973.28
2023-03-10T06:16:45.134Z,95972.59
2023-03-10T06:19:52.635Z,95966.94
2023-03-10T06:22:59.121Z,95964.44
2023-03-10T06:26:12.309Z,95972.13
2023-03-10T06:29:18.196Z,95971.88
2023-03-10T06:32:25.145Z,95962.38
2023-03-10T06:35:32.404Z,95964.06
2023-03-10T06:38:39.412Z,95959.94
2023-03-10T06:41:48.040Z,95957.66
2023-03-10T06:44:57.932Z,95946.91
2023-03-10T06:48:03.740Z,95944.78
2023-03-10T06:51:22.376Z,95940.13
2023-03-10T06:54:28.701Z,95938.72
2023-03-10T06:57:40.255Z,95934.41
2023-03-10T07:00:49.454Z,95927.63
2023-03-10T07:03:57.112Z,95910.44
2023-03-10T07:07:15.229Z,95916.75
2023-03-10T07:10:23.395Z,95907.19
2023-03-10T07:13:31.897Z,95909.56
2023-03-10T07:16:38.816Z,95907.34
2023-03-10T07:19:47.865Z,95917.81
2023-03-10T07:22:55.375Z,95916.53
2023-03-10T07:26:01.618Z,95915.09
2023-03-10T07:29:15.920Z,95905.44
2023-03-10T07:32:21.754Z,95904.97
2023-03-10T07:35:28.858Z,95908.72
2023-03-10T07:38:35.832Z,95902.41
2023-03-10T07:41:42.792Z,95901.81
2023-03-10T07:44:53.648Z,95905.78
2023-03-10T07:48:00.441Z,95905.25
2023-03-10T07:51:06.806Z,95899.94
2023-03-10T07:54:16.248Z,95892.28
2023-03-10T07:57:22.241Z,95898.66
2023-03-10T08:00:31.805Z,95889.56
2023-03-10T08:03:38.392Z,95895.81
2023-03-10T08:06:48.069Z,95882.97
2023-03-10T08:09:54.592Z,95876.22
2023-03-10T08:13:01.530Z,95877.41
2023-03-10T08:16:11.873Z,95888.31
2023-03-10T08:19:18.722Z,95883.13
2023-03-10T08:22:24.601Z,95889.44
2023-03-10T08:25:32.005Z,95877.91
2023-03-10T08:28:39.060Z,95876.03
2023-03-10T08:31:49.347Z,95869.09
2023-03-10T08:34:55.252Z,95871.38
2023-03-10T08:38:02.068Z,95864.97
2023-03-10T08:41:21.422Z,95868.53
2023-03-10T08:44:28.409Z,95867.41
2023-03-10T08:47:37.183Z,95868.22
2023-03-10T08:50:44.349Z,95872.53
2023-03-10T08:53:56.349Z,95873.88
2023-03-10T08:57:03.211Z,95871.19
2023-03-10T09:00:14.847Z,95867.47
2023-03-10T09:03:25.933Z,95875.53
2023-03-10T09:06:33.688Z,95865.66
2023-03-10T09:09:40.498Z,95873.22
2023-03-10T09:12:46.430Z,95869.50
2023-03-10T09:15:53.329Z,95864.66
2023-03-10T09:19:08.320Z,95868.88
2023-03-10T09:22:15.112Z,95870.00
2023-03-10T09:25:21.068Z,95863.31
2023-03-10T09:28:28.013Z,95868.56
2023-03-10T09:31:38.437Z,95866.56
2023-03-10T09:34:48.388Z,95857.41
2023-03-10T09:37:54.286Z,95855.00
2023-03-10T09:41:25.350Z,95845.53
2023-03-10T09:44:43.650Z,95853.63
2023-03-10T09:48:14.628Z,95843.63
2023-03-10T09:51:28.732Z,95846.91
2023-03-10T09:54:55.701Z,95847.84
2023-03-10T09:58:03.978Z,95844.75
2023-03-10T10:01:21.595Z,95835.03
2023-03-10T10:04:40.903Z,95835.47
2023-03-10T10:07:57.873Z,95825.66
2023-03-10T10:11:06.537Z,95831.25
2023-03-10T10:14:28.815Z,95832.69
2023-03-10T10:18:02.934Z,95834.69
2023-03-10T10:21:41.771Z,95825.03
2023-03-10T10:25:19.195Z,95824.47
2023-03-10T10:28:42.362Z,95819.69
2023-03-10T10:32:09.083Z,95818.63
2023-03-10T10:35:26.238Z,95811.09
2023-03-10T10:38:36.330Z,95817.28
2023-03-10T10:41:45.664Z,95817.25
2023-03-10T10:44:55.776Z,95818.84
2023-03-10T10:48:02.867Z,95814.81
2023-03-10T10:51:27.461Z,95799.84
2023-03-10T10:54:43.941Z,95798.53
2023-03-10T10:58:01.715Z,95786.72
2023-03-10T11:01:12.691Z,95776.78
2023-03-10T11:04:18.793Z,95788.84
2023-03-10T11:07:30.138Z,95780.81
2023-03-10T11:10:38.300Z,95786.69
2023-03-10T11:14:08.643Z,95777.94
2023-03-10T11:17:25.505Z,95778.41
2023-03-10T11:20:47.012Z,95779.19
2023-03-10T11:24:12.658Z,95768.81
2023-03-10T11:27:34.263Z,95767.88
2023-03-10T11:30:58.408Z,95761.72
2023-03-10T11:34:25.920Z,95759.16
2023-03-10T11:37:45.869Z,95751.41
2023-03-10T11:40:58.445Z,95751.75
2023-03-10T11:44:24.169Z,95750.69
2023-03-10T11:47:54.631Z,95751.03
2023-03-10T11:51:04.469Z,95748.13
2023-03-10T11:54:25.685Z,95765.72
2023-03-10T11:57:42.806Z,95749.06
2023-03-10T12:00:53.982Z,95754.44
2023-03-10T12:04:19.442Z,95757.47
2023-03-10T12:07:32.816Z,95761.19
2023-03-10T12:10:45.568Z,95760.94
2023-03-10T12:13:59.710Z,95754.81
2023-03-10T12:17:08.643Z,95755.88
2023-03-10T12:20:37.214Z,95747.28
2023-03-10T12:23:45.834Z,95738.66
2023-03-10T12:27:07.573Z,95735.41
2023-03-10T12:30:51.339Z,95744.53
2023-03-10T12:34:18.904Z,95733.09
2023-03-10T12:37:28.379Z,95731.44
2023-03-10T12:40:55.203Z,95730.41
2023-03-10T12:44:03.472Z,95734.41
2023-03-10T12:47:46.323Z,95731.47
2023-03-10T12:51:03.118Z,95733.84
2023-03-10T12:54:57.401Z,95742.22
2023-03-10T12:58:25.584Z,95736.81
2023-03-10T13:01:55.198Z,95731.97
2023-03-10T13:05:08.351Z,95740.97
2023-03-10T13:08:27.435Z,95732.94
2023-03-10T13:11:44.150Z,95727.06
2023-03-10T13:14:59.153Z,95728.16
2023-03-10T13:18:22.620Z,95728.25
2023-03-10T13:21:34.385Z,95734.72
2023-03-10T13:24:42.532Z,95726.00
2023-03-10T13:27:52.835Z,95726.53
2023-03-10T13:31:26.538Z,95723.00
2023-03-10T13:34:36.990Z,95731.03
2023-03-10T13:37:42.927Z,95731.81
2023-03-10T13:40:52.823Z,95718.13
2023-03-10T13:44:01.663Z,95718.41
2023-03-10T13:47:20.650Z,95714.69
2023-03-10T13:50:28.196Z,95708.25
2023-03-10T13:53:36.462Z,95714.44
2023-03-10T13:56:46.477Z,95711.22
2023-03-10T14:00:00.003Z,95708.84
2023-03-10T14:03:06.670Z,95702.97
2023-03-10T14:06:17.349Z,95697.41
2023-03-10T14:09:26.286Z,95691.53
2023-03-10T14:12:42.846Z,95688.59
2023-03-10T14:15:59.252Z,95695.81
2023-03-10T14:19:06.057Z,95691.78
2023-03-10T14:22:32.324Z,95689.91
2023-03-10T14:25:44.755Z,95680.81
2023-03-10T14:28:50.671Z,95677.84
2023-03-10T14:32:00.149Z,95674.94
2023-03-10T14:35:11.888Z,95672.50
2023-03-10T14:38:20.149Z,95669.28
2023-03-10T14:41:28.544Z,95672.22
2023-03-10T14:44:36.887Z,95663.94
2023-03-10T14:47:45.841Z,95669.03
2023-03-10T14:50:56.584Z,95677.31
2023-03-10T14:54:03.026Z,95670.34
2023-03-10T14:57:10.264Z,95669.28
2023-03-10T15:00:21.642Z,95669.56
2023-03-10T15:03:31.454Z,95662.03
2023-03-10T15:06:37.786Z,95656.69
2023-03-10T15:09:44.744Z,95654.56
2023-03-10T15:12:54.116Z,95664.94
2023-03-10T15:16:01.733Z,95667.81
2023-03-10T15:19:15.389Z,95659.25
2023-03-10T15:22:22.337Z,95654.66
2023-03-10T15:25:28.711Z,95648.22
2023-03-10T15:28:36.400Z,95654.09
2023-03-10T15:31:43.517Z,95644.22
2023-03-10T15:34:53.301Z,95642.06
2023-03-10T15:38:02.875Z,95636.19
2023-03-10T15:41:10.578Z,95640.41
2023-03-10T15:44:16.724Z,95629.09
2023-03-10T15:47:23.376Z,95630.25
2023-03-10T15:50:31.966Z,95630.81
2023-03-10T15:53:53.501Z,95621.16
2023-03-10T15:56:59.503Z,95626.19
2023-03-10T16:00:07.214Z,95629.41
2023-03-10T16:03:18.029Z,95623.16
2023-03-10T16:06:31.890Z,95634.53
2023-03-10T16:09:37.924Z,95627.81
2023-03-10T16:12:46.482Z,95632.94
2023-03-10T16:15:52.997Z,95625.63
2023-03-10T16:18:59.960Z,95635.19
2023-03-10T16:22:10.659Z,95631.97
2023-03-10T16:25:21.572Z,95633.81
2023-03-10T16:28:27.641Z,95637.22
2023-03-10T16:31:35.380Z,95622.78
2023-03-10T16:34:41.511Z,95625.56
2023-03-10T16:37:50.940Z,95626.38
2023-03-10T16:40:58.146Z,95623.22
2023-03-10T16:44:08.025Z,95626.22
2023-03-10T16:47:15.725Z,95615.19
2023-03-10T16:50:24.367Z,95615.59
2023-03-10T16:53:33.033Z,95623.09
2023-03-10T16:56:44.165Z,95625.38
2023-03-10T16:59:56.472Z,95627.03
2023-03-10T17:03:04.513Z,95635.06
2023-03-10T17:06:13.516Z,95637.75
2023-03-10T17:09:23.117Z,95630.34
2023-03-10T17:12:29.203Z,95627.03
2023-03-10T17:15:36.009Z,95639.72
2023-03-10T17:18:42.149Z,95633.03
2023-03-10T17:21:52.684Z,95631.44
2023-03-10T17:25:02.182Z,95626.41
2023-03-10T17:28:11.383Z,95627.72
2023-03-10T17:31:20.907Z,95620.09
2023-03-10T17:34:29.587Z,95623.16
2023-03-10T17:37:35.631Z,95623.56
2023-03-10T17:40:46.364Z,95620.59
2023-03-10T17:43:53.044Z,95611.06
2023-03-10T17:47:00.001Z,95609.78
2023-03-10T17:50:06.774Z,95605.25
2023-03-10T17:53:16.515Z,95612.81
2023-03-10T17:56:25.209Z,95605.56
2023-03-10T17:59:33.016Z,95601.41
2023-03-10T18:02:39.042Z,95600.19
2023-03-10T18:05:47.841Z,95597.56
2023-03-10T18:08:56.464Z,95605.31
2023-03-10T18:12:06.461Z,95613.19
2023-03-10T18:15:15.359Z,95611.56
2023-03-10T18:18:22.242Z,95616.69
2023-03-10T18:21:29.828Z,95616.25
2023-03-10T18:24:36.677Z,95619.59
2023-03-10T18:27:46.115Z,95610.34
2023-03-10T18:30:55.013Z,95602.88
2023-03-10T18:34:01.340Z,95599.06
2023-03-10T18:37:08.390Z,95607.75
2023-03-10T18:40:19.740Z,95600.72
2023-03-10T18:43:32.315Z,95606.59
2023-03-10T18:46:38.409Z,95606.03
2023-03-10T18:49:45.574Z,95599.78
2023-03-10T18:52:51.633Z,95601.88
2023-03-10T18:56:03.156Z,95593.91
2023-03-10T18:59:13.498Z,95582.94
2023-03-10T19:02:20.619Z,95590.44
2023-03-10T19:05:26.677Z,95572.91
2023-03-10T19:08:34.542Z,95584.22
2023-03-10T19:11:41.822Z,95582.50
2023-03-10T19:14:51.326Z,95586.06
2023-03-10T19:17:59.006Z,95595.78
2023-03-10T19:21:09.764Z,95592.66
2023-03-10T19:24:15.826Z,95585.38
2023-03-10T19:27:22.852Z,95591.63
2023-03-10T19:30:32.041Z,95586.44
2023-03-10T19:33:40.006Z,95588.03
2023-03-10T19:36:46.126Z,95586.78
2023-03-10T19:39:53.157Z,95588.50
2023-03-10T19:42:59.959Z,95583.31
2023-03-10T19:46:12.927Z,95575.00
2023-03-10T19:49:19.385Z,95577.75
2023-03-10T19:52:26.859Z,95573.13
2023-03-10T19:55:33.353Z,95570.59
2023-03-10T19:58:40.772Z,95569.34
2023-03-10T20:01:49.753Z,95557.34
2023-03-10T20:04:56.738Z,95568.16
2023-03-10T20:08:02.959Z,95556.88
2023-03-10T20:11:13.739Z,95560.47
2023-03-10T20:14:19.952Z,95558.19
2023-03-10T20:17:30.823Z,95552.63
2023-03-10T20:20:37.423Z,95554.47
2023-03-10T20:23:47.780Z,95552.16
2023-03-10T20:26:53.879Z,95534.41
2023-03-10T20:30:00.865Z,95542.94
2023-03-10T20:33:11.915Z,95531.50
2023-03-10T20:36:18.933Z,95530.72
2023-03-10T20:39:24.951Z,95528.50
2023-03-10T20:42:31.878Z,95523.31
2023-03-10T20:45:39.009Z,95507.97
2023-03-10T20:48:48.876Z,95510.84
2023-03-10T20:51:55.141Z,95502.66
2023-03-10T20:55:02.200Z,95508.06
2023-03-10T20:58:09.173Z,95509.66
2023-03-10T21:01:19.704Z,95505.50
2023-03-10T21:04:28.557Z,95502.75
2023-03-10T21:07:35.947Z,95511.41
2023-03-10T21:10:44.983Z,95508.97
2023-03-10T21:13:53.189Z,95508.63
2023-03-10T21:17:00.241Z,95504.25
2023-03-10T21:20:13.760Z,95506.66
2023-03-10T21:23:19.857Z,95494.41
2023-03-10T21:26:27.211Z,95499.72
2023-03-10T21:29:33.337Z,95494.53
2023-03-10T21:32:41.161Z,95493.94
2023-03-10T21:35:49.921Z,95479.97
2023-03-10T21:38:57.131Z,95485.16
2023-03-10T21:42:03.311Z,95472.47
2023-03-10T21:45:14.643Z,95480.53
2023-03-10T21:48:20.772Z,95476.59
2023-03-10T21:51:33.813Z,95478.53
2023-03-10T21:54:40.181Z,95488.44
2023-03-10T21:57:46.963Z,95479.34
2023-03-10T22:00:56.054Z,95486.59
2023-03-10T22:04:03.046Z,95477.25
2023-03-10T22:07:11.684Z,95477.88
2023-03-10T22:10:19.891Z,95474.25
2023-03-10T22:13:25.936Z,95479.84
2023-03-10T22:16:33.128Z,95471.28
2023-03-10T22:19:39.209Z,95451.31
2023-03-10T22:22:48.788Z,95460.22
2023-03-10T22:25:54.817Z,95451.84
2023-03-10T22:29:01.616Z,95445.75
2023-03-10T22:32:08.958Z,95451.31
2023-03-10T22:35:16.720Z,95438.63
2023-03-10T22:38:25.595Z,95440.72
2023-03-10T22:41:32.312Z,95437.38
2023-03-10T22:44:39.954Z,95433.13
2023-03-10T22:47:47.046Z,95430.25
2023-03-10T22:50:53.403Z,95431.09
2023-03-10T22:54:03.265Z,95433.16
2023-03-10T22:57:09.939Z,95437.88
2023-03-10T23:00:22.606Z,95437.09
2023-03-10T23:03:28.757Z,95446.22
2023-03-10T23:06:36.248Z,95440.69
2023-03-10T23:09:46.208Z,95445.63
2023-03-10T23:12:54.733Z,95449.31
2023-03-10T23:16:01.178Z,95437.78
2023-03-10T23:19:08.961Z,95432.03
2023-03-10T23:22:14.777Z,95437.91
2023-03-10T23:25:27.615Z,95429.72
2023-03-10T23:28:33.712Z,95434.69
2023-03-10T23:31:40.561Z,95424.41
2023-03-10T23:34:46.741Z,95424.66
2023-03-10T23:37:54.266Z,95420.72
2023-03-10T23:41:02.832Z,95424.78
2023-03-10T23:44:09.983Z,95418.09
2023-03-10T23:47:18.791Z,95418.19
2023-03-10T23:50:30.302Z,95420.38
2023-03-10T23:53:36.399Z,95420.63
2023-03-10T23:56:45.835Z,95421.53
2023-03-10T23:59:52.042Z,95408.63
